sensor_id;sensor_type;location;lat;lon;timestamp;P1;durP1;ratioP1;P2;durP2;ratioP2
14890;SDS011;7537;48.014;11.590;2022-09-13T00:01:38;3.39;;;3.28;;
14890;SDS011;7537;48.014;11.590;2022-09-13T00:07:06;3.45;;;3.09;;
14890;SDS011;7537;48.014;11.590;2022-09-13T00:12:33;3.76;;;2.37;;
14890;SDS011;7537;48.014;11.590;2022-09-13T00:18:00;3.13;;;3.16;;
14890;SDS011;7537;48.014;11.590;2022-09-13T00:23:28;3.22;;;2.63;;
14890;SDS011;7537;48.014;11.590;2022-09-13T00:28:55;2.46;;;2.54;;
14890;SDS011;7537;48.014;11.590;2022-09-13T00:34:24;2.52;;;2.59;;
14890;SDS011;7537;48.014;11.590;2022-09-13T00:39:55;4.52;;;3.04;;
14890;SDS011;7537;48.014;11.590;2022-09-13T00:45:22;8.14;;;2.76;;
14890;SDS011;7537;48.014;11.590;2022-09-13T00:50:50;2.67;;;2.55;;
14890;SDS011;7537;48.014;11.590;2022-09-13T00:56:18;2.57;;;2.67;;
14890;SDS011;7537;48.014;11.590;2022-09-13T01:01:50;3.15;;;2.54;;
14890;SDS011;7537;48.014;11.590;2022-09-13T01:07:20;3.19;;;3.32;;
14890;SDS011;7537;48.014;11.590;2022-09-13T01:12:50;4.28;;;2.39;;
14890;SDS011;7537;48.014;11.590;2022-09-13T01:18:20;2.56;;;2.16;;
14890;SDS011;7537;48.014;11.590;2022-09-13T01:24:04;2.21;;;2.37;;
14890;SDS011;7537;48.014;11.590;2022-09-13T01:35:34;1.84;;;1.87;;
14890;SDS011;7537;48.014;11.590;2022-09-13T01:41:13;4.50;;;1.96;;
14890;SDS011;7537;48.014;11.590;2022-09-13T01:46:45;1.73;;;1.77;;
14890;SDS011;7537;48.014;11.590;2022-09-13T01:52:16;3.12;;;1.69;;
14890;SDS011;7537;48.014;11.590;2022-09-13T01:57:47;2.46;;;1.84;;
14890;SDS011;7537;48.014;11.590;2022-09-13T02:03:16;4.89;;;1.94;;
14890;SDS011;7537;48.014;11.590;2022-09-13T02:08:50;3.12;;;1.61;;
14890;SDS011;7537;48.014;11.590;2022-09-13T02:14:21;2.50;;;1.89;;
14890;SDS011;7537;48.014;11.590;2022-09-13T02:19:51;4.40;;;1.76;;
14890;SDS011;7537;48.014;11.590;2022-09-13T02:25:21;1.86;;;1.92;;
14890;SDS011;7537;48.014;11.590;2022-09-13T02:30:50;2.29;;;1.92;;
14890;SDS011;7537;48.014;11.590;2022-09-13T02:36:20;2.30;;;2.14;;
14890;SDS011;7537;48.014;11.590;2022-09-13T02:41:53;1.59;;;1.51;;
14890;SDS011;7537;48.014;11.590;2022-09-13T02:47:35;1.63;;;1.64;;
14890;SDS011;7537;48.014;11.590;2022-09-13T02:53:07;1.79;;;1.61;;
14890;SDS011;7537;48.014;11.590;2022-09-13T02:58:38;2.81;;;1.42;;
14890;SDS011;7537;48.014;11.590;2022-09-13T03:04:09;3.78;;;1.76;;
14890;SDS011;7537;48.014;11.590;2022-09-13T03:09:36;2.74;;;1.87;;
14890;SDS011;7537;48.014;11.590;2022-09-13T03:15:09;2.11;;;2.17;;
14890;SDS011;7537;48.014;11.590;2022-09-13T03:20:43;2.16;;;2.21;;
14890;SDS011;7537;48.014;11.590;2022-09-13T03:26:16;3.61;;;1.71;;
14890;SDS011;7537;48.014;11.590;2022-09-13T03:31:48;1.93;;;1.97;;
14890;SDS011;7537;48.014;11.590;2022-09-13T03:37:19;3.13;;;1.93;;
14890;SDS011;7537;48.014;11.590;2022-09-13T03:42:52;1.80;;;1.91;;
14890;SDS011;7537;48.014;11.590;2022-09-13T03:48:22;2.04;;;1.72;;
14890;SDS011;7537;48.014;11.590;2022-09-13T03:53:53;2.19;;;1.87;;
14890;SDS011;7537;48.014;11.590;2022-09-13T03:59:21;2.05;;;1.51;;
14890;SDS011;7537;48.014;11.590;2022-09-13T04:04:49;1.56;;;1.64;;
14890;SDS011;7537;48.014;11.590;2022-09-13T04:10:16;1.59;;;1.74;;
14890;SDS011;7537;48.014;11.590;2022-09-13T04:15:43;2.01;;;2.14;;
14890;SDS011;7537;48.014;11.590;2022-09-13T04:21:11;1.77;;;1.89;;
14890;SDS011;7537;48.014;11.590;2022-09-13T04:26:39;1.43;;;1.50;;
14890;SDS011;7537;48.014;11.590;2022-09-13T04:32:07;1.64;;;1.61;;
14890;SDS011;7537;48.014;11.590;2022-09-13T04:37:34;1.54;;;1.60;;
14890;SDS011;7537;48.014;11.590;2022-09-13T04:43:05;1.11;;;1.23;;
14890;SDS011;7537;48.014;11.590;2022-09-13T04:48:32;1.44;;;1.57;;
14890;SDS011;7537;48.014;11.590;2022-09-13T04:53:59;2.31;;;1.57;;
14890;SDS011;7537;48.014;11.590;2022-09-13T04:59:28;1.55;;;1.62;;
14890;SDS011;7537;48.014;11.590;2022-09-13T05:04:55;1.56;;;1.30;;
14890;SDS011;7537;48.014;11.590;2022-09-13T05:10:23;1.84;;;1.45;;
14890;SDS011;7537;48.014;11.590;2022-09-13T05:15:51;1.93;;;1.97;;
14890;SDS011;7537;48.014;11.590;2022-09-13T05:21:20;2.56;;;1.39;;
14890;SDS011;7537;48.014;11.590;2022-09-13T05:26:47;1.25;;;1.31;;
14890;SDS011;7537;48.014;11.590;2022-09-13T05:32:16;2.42;;;1.71;;
14890;SDS011;7537;48.014;11.590;2022-09-13T05:37:43;6.11;;;1.18;;
14890;SDS011;7537;48.014;11.590;2022-09-13T05:43:14;1.43;;;1.16;;
14890;SDS011;7537;48.014;11.590;2022-09-13T05:48:41;1.27;;;1.35;;
14890;SDS011;7537;48.014;11.590;2022-09-13T05:54:11;1.47;;;1.57;;
14890;SDS011;7537;48.014;11.590;2022-09-13T05:59:38;1.34;;;0.97;;
14890;SDS011;7537;48.014;11.590;2022-09-13T06:05:07;2.16;;;2.17;;
14890;SDS011;7537;48.014;11.590;2022-09-13T06:10:35;1.19;;;1.26;;
14890;SDS011;7537;48.014;11.590;2022-09-13T06:16:04;1.40;;;1.02;;
14890;SDS011;7537;48.014;11.590;2022-09-13T06:21:31;1.81;;;0.94;;
14890;SDS011;7537;48.014;11.590;2022-09-13T06:26:59;1.15;;;0.95;;
14890;SDS011;7537;48.014;11.590;2022-09-13T06:32:26;1.49;;;0.96;;
14890;SDS011;7537;48.014;11.590;2022-09-13T06:37:55;0.74;;;0.83;;
14890;SDS011;7537;48.014;11.590;2022-09-13T06:43:26;0.77;;;0.84;;
14890;SDS011;7537;48.014;11.590;2022-09-13T06:48:54;0.77;;;0.83;;
14890;SDS011;7537;48.014;11.590;2022-09-13T06:54:22;0.47;;;0.53;;
14890;SDS011;7537;48.014;11.590;2022-09-13T06:59:49;0.71;;;0.80;;
14890;SDS011;7537;48.014;11.590;2022-09-13T07:05:18;0.83;;;0.84;;
14890;SDS011;7537;48.014;11.590;2022-09-13T07:10:50;2.25;;;1.38;;
14890;SDS011;7537;48.014;11.590;2022-09-13T07:16:23;1.79;;;0.85;;
14890;SDS011;7537;48.014;11.590;2022-09-13T07:21:52;0.71;;;0.58;;
14890;SDS011;7537;48.014;11.590;2022-09-13T07:27:20;0.42;;;0.47;;
14890;SDS011;7537;48.014;11.590;2022-09-13T07:32:47;1.05;;;1.08;;
14890;SDS011;7537;48.014;11.590;2022-09-13T07:38:16;0.77;;;0.87;;
14890;SDS011;7537;48.014;11.590;2022-09-13T07:43:48;1.67;;;0.74;;
14890;SDS011;7537;48.014;11.590;2022-09-13T07:49:16;0.54;;;0.60;;
14890;SDS011;7537;48.014;11.590;2022-09-13T07:54:45;8.39;;;0.96;;
14890;SDS011;7537;48.014;11.590;2022-09-13T08:00:13;0.84;;;0.68;;
14890;SDS011;7537;48.014;11.590;2022-09-13T08:05:41;1.30;;;0.71;;
14890;SDS011;7537;48.014;11.590;2022-09-13T08:11:11;2.79;;;1.49;;
14890;SDS011;7537;48.014;11.590;2022-09-13T08:16:41;1.07;;;0.54;;
14890;SDS011;7537;48.014;11.590;2022-09-13T08:22:09;0.81;;;0.74;;
14890;SDS011;7537;48.014;11.590;2022-09-13T08:27:36;0.51;;;0.56;;
14890;SDS011;7537;48.014;11.590;2022-09-13T08:33:05;1.11;;;0.68;;
14890;SDS011;7537;48.014;11.590;2022-09-13T08:38:33;0.59;;;0.65;;
14890;SDS011;7537;48.014;11.590;2022-09-13T08:44:04;0.76;;;0.86;;
14890;SDS011;7537;48.014;11.590;2022-09-13T08:49:35;1.17;;;0.62;;
14890;SDS011;7537;48.014;11.590;2022-09-13T08:55:11;0.66;;;0.71;;
14890;SDS011;7537;48.014;11.590;2022-09-13T09:00:45;1.33;;;0.82;;
14890;SDS011;7537;48.014;11.590;2022-09-13T09:06:15;0.61;;;0.58;;
14890;SDS011;7537;48.014;11.590;2022-09-13T09:11:45;1.62;;;0.59;;
14890;SDS011;7537;48.014;11.590;2022-09-13T09:17:15;3.19;;;0.71;;
14890;SDS011;7537;48.014;11.590;2022-09-13T09:22:45;0.24;;;0.29;;
14890;SDS011;7537;48.014;11.590;2022-09-13T09:28:14;0.63;;;0.58;;
14890;SDS011;7537;48.014;11.590;2022-09-13T09:33:46;0.51;;;0.58;;
14890;SDS011;7537;48.014;11.590;2022-09-13T09:39:15;0.84;;;0.62;;
14890;SDS011;7537;48.014;11.590;2022-09-13T09:44:46;0.36;;;0.43;;
14890;SDS011;7537;48.014;11.590;2022-09-13T09:50:16;0.48;;;0.46;;
14890;SDS011;7537;48.014;11.590;2022-09-13T09:55:45;1.04;;;0.62;;
14890;SDS011;7537;48.014;11.590;2022-09-13T10:01:17;0.70;;;0.66;;
14890;SDS011;7537;48.014;11.590;2022-09-13T10:06:45;1.43;;;0.83;;
14890;SDS011;7537;48.014;11.590;2022-09-13T10:12:13;0.86;;;0.57;;
14890;SDS011;7537;48.014;11.590;2022-09-13T10:18:04;0.94;;;0.63;;
14890;SDS011;7537;48.014;11.590;2022-09-13T10:23:32;1.49;;;0.81;;
14890;SDS011;7537;48.014;11.590;2022-09-13T10:29:04;0.89;;;0.59;;
14890;SDS011;7537;48.014;11.590;2022-09-13T10:34:34;2.08;;;0.81;;
14890;SDS011;7537;48.014;11.590;2022-09-13T10:40:04;0.74;;;0.80;;
14890;SDS011;7537;48.014;11.590;2022-09-13T10:45:36;1.07;;;0.92;;
14890;SDS011;7537;48.014;11.590;2022-09-13T10:51:05;0.66;;;0.52;;
14890;SDS011;7537;48.014;11.590;2022-09-13T10:56:33;0.63;;;0.70;;
14890;SDS011;7537;48.014;11.590;2022-09-13T11:07:50;1.02;;;0.69;;
14890;SDS011;7537;48.014;11.590;2022-09-13T11:13:25;0.51;;;0.57;;
14890;SDS011;7537;48.014;11.590;2022-09-13T11:18:57;1.46;;;0.46;;
14890;SDS011;7537;48.014;11.590;2022-09-13T11:24:37;1.83;;;0.52;;
14890;SDS011;7537;48.014;11.590;2022-09-13T11:30:12;0.53;;;0.58;;
14890;SDS011;7537;48.014;11.590;2022-09-13T11:35:44;0.50;;;0.56;;
14890;SDS011;7537;48.014;11.590;2022-09-13T11:41:17;2.94;;;0.82;;
14890;SDS011;7537;48.014;11.590;2022-09-13T11:46:53;0.54;;;0.61;;
14890;SDS011;7537;48.014;11.590;2022-09-13T11:52:28;2.24;;;0.76;;
14890;SDS011;7537;48.014;11.590;2022-09-13T11:57:59;1.54;;;0.61;;
14890;SDS011;7537;48.014;11.590;2022-09-13T12:03:29;1.20;;;0.44;;
14890;SDS011;7537;48.014;11.590;2022-09-13T12:08:58;0.63;;;0.18;;
14890;SDS011;7537;48.014;11.590;2022-09-13T12:14:27;1.70;;;0.51;;
14890;SDS011;7537;48.014;11.590;2022-09-13T12:19:56;0.51;;;0.43;;
14890;SDS011;7537;48.014;11.590;2022-09-13T12:25:30;0.79;;;0.63;;
14890;SDS011;7537;48.014;11.590;2022-09-13T12:31:03;0.44;;;0.49;;
14890;SDS011;7537;48.014;11.590;2022-09-13T12:36:47;1.23;;;0.76;;
14890;SDS011;7537;48.014;11.590;2022-09-13T12:42:26;1.63;;;0.54;;
14890;SDS011;7537;48.014;11.590;2022-09-13T12:48:06;0.33;;;0.26;;
14890;SDS011;7537;48.014;11.590;2022-09-13T12:59:37;0.74;;;0.73;;
14890;SDS011;7537;48.014;11.590;2022-09-13T13:05:17;0.86;;;0.61;;
14890;SDS011;7537;48.014;11.590;2022-09-13T13:10:58;0.55;;;0.62;;
14890;SDS011;7537;48.014;11.590;2022-09-13T13:16:29;0.49;;;0.54;;
14890;SDS011;7537;48.014;11.590;2022-09-13T13:21:57;0.52;;;0.51;;
14890;SDS011;7537;48.014;11.590;2022-09-13T13:33:53;1.86;;;0.64;;
14890;SDS011;7537;48.014;11.590;2022-09-13T13:39:32;2.50;;;0.58;;
14890;SDS011;7537;48.014;11.590;2022-09-13T13:56:47;1.59;;;0.52;;
14890;SDS011;7537;48.014;11.590;2022-09-13T14:02:15;0.34;;;0.31;;
14890;SDS011;7537;48.014;11.590;2022-09-13T14:08:10;2.28;;;0.54;;
14890;SDS011;7537;48.014;11.590;2022-09-13T14:13:44;0.46;;;0.26;;
14890;SDS011;7537;48.014;11.590;2022-09-13T14:19:19;0.42;;;0.40;;
14890;SDS011;7537;48.014;11.590;2022-09-13T14:24:47;1.14;;;0.41;;
14890;SDS011;7537;48.014;11.590;2022-09-13T14:30:18;0.62;;;0.67;;
14890;SDS011;7537;48.014;11.590;2022-09-13T14:35:46;0.65;;;0.47;;
14890;SDS011;7537;48.014;11.590;2022-09-13T14:41:29;0.66;;;0.44;;
14890;SDS011;7537;48.014;11.590;2022-09-13T14:47:00;2.12;;;0.57;;
14890;SDS011;7537;48.014;11.590;2022-09-13T14:52:32;0.64;;;0.51;;
14890;SDS011;7537;48.014;11.590;2022-09-13T14:58:02;1.09;;;0.69;;
14890;SDS011;7537;48.014;11.590;2022-09-13T15:03:30;0.91;;;0.46;;
14890;SDS011;7537;48.014;11.590;2022-09-13T15:08:59;0.94;;;0.46;;
14890;SDS011;7537;48.014;11.590;2022-09-13T15:14:31;0.48;;;0.53;;
14890;SDS011;7537;48.014;11.590;2022-09-13T15:20:02;1.19;;;0.77;;
14890;SDS011;7537;48.014;11.590;2022-09-13T15:25:30;2.82;;;1.44;;
14890;SDS011;7537;48.014;11.590;2022-09-13T15:30:58;1.65;;;0.67;;
14890;SDS011;7537;48.014;11.590;2022-09-13T15:36:27;0.91;;;0.98;;
14890;SDS011;7537;48.014;11.590;2022-09-13T15:41:55;0.67;;;0.73;;
14890;SDS011;7537;48.014;11.590;2022-09-13T15:47:24;0.64;;;0.45;;
14890;SDS011;7537;48.014;11.590;2022-09-13T15:52:57;2.24;;;1.04;;
14890;SDS011;7537;48.014;11.590;2022-09-13T15:58:26;0.86;;;0.90;;
14890;SDS011;7537;48.014;11.590;2022-09-13T16:03:53;1.01;;;1.07;;
14890;SDS011;7537;48.014;11.590;2022-09-13T16:09:22;1.56;;;1.29;;
14890;SDS011;7537;48.014;11.590;2022-09-13T16:14:49;1.83;;;1.27;;
14890;SDS011;7537;48.014;11.590;2022-09-13T16:20:18;2.31;;;1.35;;
14890;SDS011;7537;48.014;11.590;2022-09-13T16:25:49;1.47;;;0.94;;
14890;SDS011;7537;48.014;11.590;2022-09-13T16:31:20;3.44;;;1.14;;
14890;SDS011;7537;48.014;11.590;2022-09-13T16:36:48;5.72;;;0.97;;
14890;SDS011;7537;48.014;11.590;2022-09-13T16:42:16;3.25;;;1.76;;
14890;SDS011;7537;48.014;11.590;2022-09-13T16:47:45;1.39;;;1.44;;
14890;SDS011;7537;48.014;11.590;2022-09-13T16:53:18;1.42;;;1.51;;
14890;SDS011;7537;48.014;11.590;2022-09-13T16:58:46;3.16;;;1.78;;
14890;SDS011;7537;48.014;11.590;2022-09-13T17:04:17;2.61;;;1.69;;
14890;SDS011;7537;48.014;11.590;2022-09-13T17:09:46;3.77;;;1.16;;
14890;SDS011;7537;48.014;11.590;2022-09-13T17:15:16;3.04;;;1.32;;
14890;SDS011;7537;48.014;11.590;2022-09-13T17:20:43;1.87;;;1.54;;
14890;SDS011;7537;48.014;11.590;2022-09-13T17:26:13;1.95;;;1.26;;
14890;SDS011;7537;48.014;11.590;2022-09-13T17:31:40;1.81;;;1.29;;
14890;SDS011;7537;48.014;11.590;2022-09-13T17:37:09;3.81;;;1.45;;
14890;SDS011;7537;48.014;11.590;2022-09-13T17:42:38;4.93;;;2.01;;
14890;SDS011;7537;48.014;11.590;2022-09-13T17:48:05;2.24;;;1.28;;
14890;SDS011;7537;48.014;11.590;2022-09-13T17:53:36;2.27;;;1.77;;
14890;SDS011;7537;48.014;11.590;2022-09-13T17:59:07;4.08;;;1.67;;
14890;SDS011;7537;48.014;11.590;2022-09-13T18:04:35;1.34;;;1.30;;
14890;SDS011;7537;48.014;11.590;2022-09-13T18:10:06;3.21;;;1.78;;
14890;SDS011;7537;48.014;11.590;2022-09-13T18:15:36;2.11;;;1.38;;
14890;SDS011;7537;48.014;11.590;2022-09-13T18:21:04;1.21;;;1.06;;
14890;SDS011;7537;48.014;11.590;2022-09-13T18:26:32;0.97;;;0.95;;
14890;SDS011;7537;48.014;11.590;2022-09-13T18:31:59;1.15;;;1.06;;
14890;SDS011;7537;48.014;11.590;2022-09-13T18:37:30;1.11;;;1.18;;
14890;SDS011;7537;48.014;11.590;2022-09-13T18:42:58;6.73;;;1.47;;
14890;SDS011;7537;48.014;11.590;2022-09-13T18:48:29;2.74;;;1.54;;
14890;SDS011;7537;48.014;11.590;2022-09-13T18:54:01;2.96;;;1.46;;
14890;SDS011;7537;48.014;11.590;2022-09-13T18:59:28;1.29;;;1.05;;
14890;SDS011;7537;48.014;11.590;2022-09-13T19:04:57;0.96;;;1.04;;
14890;SDS011;7537;48.014;11.590;2022-09-13T19:10:27;1.30;;;1.04;;
14890;SDS011;7537;48.014;11.590;2022-09-13T19:15:57;2.97;;;1.36;;
14890;SDS011;7537;48.014;11.590;2022-09-13T19:23:11;3.26;;;1.23;;
14890;SDS011;7537;48.014;11.590;2022-09-13T19:28:39;3.41;;;1.44;;
14890;SDS011;7537;48.014;11.590;2022-09-13T19:34:07;2.19;;;1.59;;
14890;SDS011;7537;48.014;11.590;2022-09-13T19:39:38;1.51;;;1.22;;
14890;SDS011;7537;48.014;11.590;2022-09-13T19:45:06;1.35;;;1.21;;
14890;SDS011;7537;48.014;11.590;2022-09-13T19:50:33;1.14;;;1.21;;
14890;SDS011;7537;48.014;11.590;2022-09-13T19:56:05;1.12;;;0.91;;
14890;SDS011;7537;48.014;11.590;2022-09-13T20:01:33;2.64;;;1.64;;
14890;SDS011;7537;48.014;11.590;2022-09-13T20:07:01;3.14;;;1.37;;
14890;SDS011;7537;48.014;11.590;2022-09-13T20:12:29;3.39;;;1.13;;
14890;SDS011;7537;48.014;11.590;2022-09-13T20:17:56;1.19;;;1.09;;
14890;SDS011;7537;48.014;11.590;2022-09-13T20:23:27;4.52;;;1.34;;
14890;SDS011;7537;48.014;11.590;2022-09-13T20:28:57;2.74;;;1.61;;
14890;SDS011;7537;48.014;11.590;2022-09-13T20:34:24;4.28;;;1.56;;
14890;SDS011;7537;48.014;11.590;2022-09-13T20:39:52;2.27;;;1.49;;
14890;SDS011;7537;48.014;11.590;2022-09-13T20:45:19;4.51;;;1.79;;
14890;SDS011;7537;48.014;11.590;2022-09-13T20:50:54;1.21;;;1.18;;
14890;SDS011;7537;48.014;11.590;2022-09-13T20:56:22;2.28;;;1.62;;
14890;SDS011;7537;48.014;11.590;2022-09-13T21:01:49;1.26;;;1.33;;
14890;SDS011;7537;48.014;11.590;2022-09-13T21:07:20;9.89;;;1.28;;
14890;SDS011;7537;48.014;11.590;2022-09-13T21:12:49;1.01;;;1.08;;
14890;SDS011;7537;48.014;11.590;2022-09-13T21:18:17;2.41;;;1.62;;
14890;SDS011;7537;48.014;11.590;2022-09-13T21:23:48;6.02;;;2.45;;
14890;SDS011;7537;48.014;11.590;2022-09-13T21:29:15;3.66;;;1.95;;
14890;SDS011;7537;48.014;11.590;2022-09-13T21:34:43;4.95;;;1.71;;
14890;SDS011;7537;48.014;11.590;2022-09-13T21:40:10;7.41;;;1.66;;
14890;SDS011;7537;48.014;11.590;2022-09-13T21:45:39;2.04;;;1.66;;
14890;SDS011;7537;48.014;11.590;2022-09-13T21:51:07;1.13;;;1.20;;
14890;SDS011;7537;48.014;11.590;2022-09-13T21:58:13;3.50;;;1.67;;
14890;SDS011;7537;48.014;11.590;2022-09-13T22:03:41;2.95;;;1.91;;
14890;SDS011;7537;48.014;11.590;2022-09-13T22:09:09;2.31;;;2.16;;
14890;SDS011;7537;48.014;11.590;2022-09-13T22:14:37;1.49;;;1.54;;
14890;SDS011;7537;48.014;11.590;2022-09-13T22:20:06;1.26;;;1.22;;
14890;SDS011;7537;48.014;11.590;2022-09-13T22:25:33;0.87;;;0.87;;
14890;SDS011;7537;48.014;11.590;2022-09-13T22:31:04;2.42;;;1.76;;
14890;SDS011;7537;48.014;11.590;2022-09-13T22:36:32;1.64;;;1.73;;
14890;SDS011;7537;48.014;11.590;2022-09-13T22:41:59;2.49;;;1.84;;
14890;SDS011;7537;48.014;11.590;2022-09-13T22:47:27;1.72;;;1.76;;
14890;SDS011;7537;48.014;11.590;2022-09-13T22:52:56;0.08;;;0.18;;
14890;SDS011;7537;48.014;11.590;2022-09-13T22:58:26;0.00;;;0.00;;
14890;SDS011;7537;48.014;11.590;2022-09-13T23:03:54;0.07;;;0.09;;
14890;SDS011;7537;48.014;11.590;2022-09-13T23:09:22;0.09;;;0.10;;
14890;SDS011;7537;48.014;11.590;2022-09-13T23:14:49;2.69;;;1.78;;
14890;SDS011;7537;48.014;11.590;2022-09-13T23:20:17;3.25;;;2.18;;
14890;SDS011;7537;48.014;11.590;2022-09-13T23:25:45;2.09;;;2.13;;
14890;SDS011;7537;48.014;11.590;2022-09-13T23:31:13;2.39;;;2.21;;
14890;SDS011;7537;48.014;11.590;2022-09-13T23:36:41;1.61;;;1.73;;
14890;SDS011;7537;48.014;11.590;2022-09-13T23:42:09;5.00;;;2.04;;
14890;SDS011;7537;48.014;11.590;2022-09-13T23:47:36;2.08;;;1.83;;
14890;SDS011;7537;48.014;11.590;2022-09-13T23:53:04;2.91;;;2.14;;
14890;SDS011;7537;48.014;11.590;2022-09-13T23:58:40;2.26;;;2.12;;
